Time;durP1;ratioP1;P1;durP2;ratioP2;P2;SDS_P1;SDS_P2;PMS_P1;PMS_P2;Temp;Humidity;BMP_temperature;BMP_pressure;BME280_temperature;BME280_humidity;BME280_pressure;Samples;Min_cycle;Max_cycle;Signal;HPM_P1;HPM_P2
2023/08/18 00:00:32;;;;;;;4.97;2.15;;;23.20;99.90;;;;;;7386650;19;20127;-76
2023/08/18 00:02:58;;;;;;;3.47;2.45;;;23.20;99.90;;;;;;7392362;19;20162;-76
2023/08/18 00:05:23;;;;;;;3.15;2.20;;;23.30;99.90;;;;;;7391826;19;20122;-76
2023/08/18 00:07:49;;;;;;;3.10;2.10;;;23.40;99.90;;;;;;7392298;19;20777;-76
2023/08/18 00:10:15;;;;;;;2.75;2.10;;;23.40;99.90;;;;;;7391508;19;20169;-76
2023/08/18 00:12:41;;;;;;;3.90;2.53;;;23.30;99.90;;;;;;7393543;19;20619;-76
2023/08/18 00:15:07;;;;;;;3.03;2.28;;;23.30;99.90;;;;;;7390027;19;20131;-75
2023/08/18 00:17:33;;;;;;;4.28;2.40;;;23.20;99.90;;;;;;7391765;19;20218;-77
2023/08/18 00:19:58;;;;;;;5.18;2.35;;;23.30;99.90;;;;;;7392660;19;20163;-76
2023/08/18 00:22:24;;;;;;;3.75;2.65;;;23.20;99.90;;;;;;7393175;19;20130;-76
2023/08/18 00:24:51;;;;;;;4.15;2.20;;;23.40;99.90;;;;;;7392257;19;20131;-75
2023/08/18 00:27:17;;;;;;;3.88;2.40;;;23.10;99.90;;;;;;7385307;19;20480;-76
2023/08/18 00:29:42;;;;;;;4.57;2.45;;;23.10;99.90;;;;;;7389426;19;20134;-76
2023/08/18 00:32:08;;;;;;;4.60;2.13;;;22.70;99.90;;;;;;7392200;19;20134;-76
2023/08/18 00:34:34;;;;;;;5.38;2.38;;;22.50;99.90;;;;;;7391264;19;20138;-76
2023/08/18 00:37:00;;;;;;;3.67;2.47;;;22.30;99.90;;;;;;7392601;19;20148;-76
2023/08/18 00:39:26;;;;;;;4.53;2.67;;;22.30;99.90;;;;;;7389352;19;20234;-76
2023/08/18 00:41:51;;;;;;;5.10;2.03;;;22.40;99.90;;;;;;7388972;19;20130;-76
2023/08/18 00:44:17;;;;;;;4.43;2.40;;;22.30;99.90;;;;;;7391656;19;20146;-76
2023/08/18 00:46:44;;;;;;;3.95;2.63;;;22.50;99.90;;;;;;7392269;19;20131;-76
2023/08/18 00:49:10;;;;;;;4.15;2.20;;;22.50;99.90;;;;;;7387626;19;20198;-76
2023/08/18 00:51:39;;;;;;;3.47;2.28;;;22.40;99.90;;;;;;7391285;19;20747;-75
2023/08/18 00:54:05;;;;;;;3.25;2.17;;;22.40;99.90;;;;;;7391485;19;20139;-75
2023/08/18 00:56:31;;;;;;;3.95;2.53;;;22.30;99.90;;;;;;7392839;19;20135;-76
2023/08/18 00:58:57;;;;;;;2.50;2.20;;;22.30;99.90;;;;;;7391567;19;20230;-76
2023/08/18 01:01:23;;;;;;;3.25;2.45;;;22.20;99.90;;;;;;7391568;19;20138;-75
2023/08/18 01:03:50;;;;;;;4.93;2.25;;;22.10;99.90;;;;;;7391501;19;20182;-76
2023/08/18 01:06:15;;;;;;;3.83;2.30;;;22.20;99.90;;;;;;7389424;19;20131;-76
2023/08/18 01:08:41;;;;;;;3.40;2.50;;;22.30;99.90;;;;;;7390310;19;20138;-75
2023/08/18 01:11:19;;;;;;;3.13;2.30;;;22.50;99.90;;;;;;7389856;19;20139;-75
2023/08/18 01:14:01;;;;;;;5.10;2.55;;;22.50;99.90;;;;;;7389233;19;20146;-75
2023/08/18 01:16:29;;;;;;;3.40;2.53;;;22.60;99.90;;;;;;7385148;19;20452;-75
2023/08/18 01:18:55;;;;;;;2.80;2.08;;;22.60;99.90;;;;;;7389969;19;20154;-75
2023/08/18 01:21:23;;;;;;;2.75;2.22;;;22.50;99.90;;;;;;7393402;19;20131;-76
2023/08/18 01:23:49;;;;;;;7.22;2.50;;;22.60;99.90;;;;;;7389874;19;20172;-77
2023/08/18 01:26:16;;;;;;;4.03;2.50;;;22.60;99.90;;;;;;7391580;19;20166;-76
2023/08/18 01:28:46;;;;;;;4.15;2.20;;;22.40;99.90;;;;;;7388516;19;20153;-75
2023/08/18 01:31:19;;;;;;;3.08;2.28;;;22.30;99.90;;;;;;7389608;19;20143;-76
2023/08/18 01:34:08;;;;;;;3.10;2.17;;;22.00;99.90;;;;;;7390233;19;20178;-75
2023/08/18 01:36:39;;;;;;;2.35;1.90;;;21.80;99.90;;;;;;7390572;19;20146;-75
2023/08/18 01:39:06;;;;;;;4.40;2.30;;;21.70;99.90;;;;;;7389170;19;20142;-75
2023/08/18 01:41:33;;;;;;;4.25;2.10;;;22.00;99.90;;;;;;7388962;19;20480;-75
2023/08/18 01:44:05;;;;;;;3.40;2.38;;;22.00;99.90;;;;;;7389889;19;20149;-76
2023/08/18 01:46:30;;;;;;;6.32;2.45;;;22.00;99.90;;;;;;7388463;19;20146;-75
2023/08/18 01:48:56;;;;;;;2.80;2.08;;;22.00;99.90;;;;;;7386444;19;20521;-76
2023/08/18 01:51:22;;;;;;;3.10;2.20;;;22.00;99.90;;;;;;7389683;19;20147;-76
2023/08/18 01:53:48;;;;;;;3.28;2.17;;;22.00;99.90;;;;;;7389331;19;20146;-75
2023/08/18 01:56:13;;;;;;;4.25;2.50;;;22.20;99.90;;;;;;7390646;19;20135;-76
2023/08/18 01:58:39;;;;;;;3.88;2.85;;;22.40;99.90;;;;;;7388979;19;20146;-75
2023/08/18 02:01:05;;;;;;;5.50;2.80;;;22.50;99.90;;;;;;7388648;19;20138;-76
2023/08/18 02:03:30;;;;;;;2.35;2.15;;;22.50;99.90;;;;;;7387851;19;20169;-75
2023/08/18 02:05:57;;;;;;;3.25;2.40;;;22.50;99.90;;;;;;7391193;19;20146;-75
2023/08/18 02:08:24;;;;;;;3.92;2.58;;;22.50;99.90;;;;;;7386957;19;20157;-76
2023/08/18 02:10:52;;;;;;;6.20;2.72;;;22.50;99.90;;;;;;7390888;19;20731;-76
2023/08/18 02:13:18;;;;;;;6.20;2.80;;;22.50;99.90;;;;;;7387878;19;20627;-76
2023/08/18 02:15:47;;;;;;;6.88;2.20;;;22.50;99.90;;;;;;7388438;19;20142;-76
2023/08/18 02:18:13;;;;;;;4.15;2.22;;;22.50;99.90;;;;;;7388230;19;20169;-76
2023/08/18 02:20:39;;;;;;;3.30;2.25;;;22.60;99.90;;;;;;7390112;19;20134;-76
2023/08/18 02:23:05;;;;;;;5.25;2.13;;;22.60;99.90;;;;;;7386056;19;20146;-75
2023/08/18 02:25:31;;;;;;;2.55;2.00;;;22.60;99.90;;;;;;7390253;19;20589;-75
2023/08/18 02:27:56;;;;;;;2.85;2.00;;;22.60;99.90;;;;;;7387679;19;20135;-74
2023/08/18 02:30:22;;;;;;;3.15;2.30;;;22.50;99.90;;;;;;7390662;19;20142;-75
2023/08/18 02:32:48;;;;;;;4.90;2.42;;;22.50;99.90;;;;;;7389148;19;20130;-74
2023/08/18 02:35:14;;;;;;;2.67;2.13;;;22.50;99.90;;;;;;7390673;19;20709;-74
2023/08/18 02:37:40;;;;;;;3.33;2.50;;;22.60;99.90;;;;;;7390350;19;20678;-75
2023/08/18 02:40:08;;;;;;;4.65;2.30;;;22.70;99.90;;;;;;7385902;19;20136;-74
2023/08/18 02:42:35;;;;;;;3.20;2.00;;;22.60;99.90;;;;;;7389284;19;20528;-75
2023/08/18 02:45:04;;;;;;;2.95;2.00;;;22.50;99.90;;;;;;7387535;19;20137;-75
2023/08/18 02:47:30;;;;;;;3.25;1.98;;;22.50;99.90;;;;;;7387414;19;20439;-75
2023/08/18 02:49:55;;;;;;;4.72;2.47;;;22.50;99.90;;;;;;7385284;19;20169;-75
2023/08/18 02:52:22;;;;;;;2.83;2.30;;;22.50;99.90;;;;;;7389291;19;20150;-75
2023/08/18 02:54:48;;;;;;;2.78;2.05;;;22.50;99.90;;;;;;7389065;19;20118;-75
2023/08/18 02:57:13;;;;;;;3.85;2.30;;;22.30;99.90;;;;;;7389065;19;20131;-75
2023/08/18 02:59:42;;;;;;;4.10;2.30;;;22.10;99.90;;;;;;7386905;19;20503;-75
2023/08/18 03:02:08;;;;;;;4.50;2.15;;;22.40;99.90;;;;;;7388358;19;20141;-75
2023/08/18 03:04:33;;;;;;;3.40;2.40;;;22.40;99.90;;;;;;7384665;19;20213;-75
2023/08/18 03:06:59;;;;;;;2.20;2.00;;;22.30;99.90;;;;;;7390566;19;20153;-76
2023/08/18 03:09:25;;;;;;;3.33;2.33;;;22.30;99.90;;;;;;7382191;19;20147;-76
2023/08/18 03:11:50;;;;;;;4.72;2.13;;;22.20;99.90;;;;;;7388458;19;20142;-75
2023/08/18 03:14:18;;;;;;;4.28;2.28;;;22.10;99.90;;;;;;7385074;19;20158;-75
2023/08/18 03:16:44;;;;;;;4.57;2.35;;;22.10;99.90;;;;;;7386992;19;20174;-75
2023/08/18 03:19:10;;;;;;;3.40;2.10;;;21.90;99.90;;;;;;7385737;19;20213;-75
2023/08/18 03:21:36;;;;;;;4.57;2.60;;;21.90;99.90;;;;;;7386757;19;20157;-75
2023/08/18 03:24:02;;;;;;;4.03;2.47;;;22.00;99.90;;;;;;7387750;19;20126;-75
2023/08/18 03:26:28;;;;;;;2.85;2.30;;;22.00;99.90;;;;;;7387163;19;20218;-76
2023/08/18 03:28:56;;;;;;;3.75;2.63;;;22.10;99.90;;;;;;7386156;19;20528;-75
2023/08/18 03:31:22;;;;;;;3.88;2.33;;;22.10;99.90;;;;;;7388751;19;20146;-74
2023/08/18 03:33:48;;;;;;;6.10;2.17;;;21.90;99.90;;;;;;7387662;19;20201;-76
2023/08/18 03:36:13;;;;;;;4.93;2.47;;;21.90;99.90;;;;;;7393973;19;20202;-76
2023/08/18 03:38:39;;;;;;;3.33;2.40;;;21.80;99.90;;;;;;7392601;19;20136;-75
2023/08/18 03:41:06;;;;;;;5.50;2.85;;;21.80;99.90;;;;;;7393225;19;20153;-75
2023/08/18 03:43:33;;;;;;;5.13;2.42;;;21.90;99.90;;;;;;7394741;19;20175;-75
2023/08/18 03:46:02;;;;;;;4.10;2.20;;;21.90;99.90;;;;;;7393908;19;20283;-75
2023/08/18 03:48:28;;;;;;;4.60;2.40;;;21.50;99.90;;;;;;7392361;19;20134;-76
2023/08/18 03:50:54;;;;;;;3.53;2.58;;;21.10;99.90;;;;;;7392807;19;20145;-74
2023/08/18 03:53:22;;;;;;;2.95;2.65;;;21.20;99.90;;;;;;7392304;19;20139;-75
2023/08/18 03:55:52;;;;;;;2.55;2.25;;;21.00;99.90;;;;;;7392791;19;20571;-75
2023/08/18 03:58:18;;;;;;;3.50;2.28;;;20.80;99.90;;;;;;7392022;19;20151;-75
2023/08/18 04:00:44;;;;;;;3.55;2.33;;;20.60;99.90;;;;;;7392625;19;20134;-76
2023/08/18 04:03:10;;;;;;;3.88;2.50;;;20.50;99.90;;;;;;7394069;19;20130;-75
2023/08/18 04:05:36;;;;;;;6.03;2.30;;;20.50;99.90;;;;;;7393943;19;20202;-74
2023/08/18 04:08:02;;;;;;;2.90;2.17;;;20.70;99.90;;;;;;7391714;19;20138;-74
2023/08/18 04:10:28;;;;;;;3.60;2.60;;;20.90;99.90;;;;;;7393368;19;20243;-75
2023/08/18 04:12:53;;;;;;;3.45;2.47;;;21.10;99.90;;;;;;7392216;19;20138;-74
2023/08/18 04:15:19;;;;;;;3.95;2.25;;;21.40;99.90;;;;;;7393419;19;20138;-76
2023/08/18 04:17:45;;;;;;;3.88;2.33;;;21.50;99.90;;;;;;7393062;19;20119;-74
2023/08/18 04:20:10;;;;;;;3.17;2.50;;;21.40;99.90;;;;;;7392622;19;20161;-74
2023/08/18 04:22:37;;;;;;;4.03;2.67;;;21.00;99.90;;;;;;7391844;19;20587;-75
2023/08/18 04:25:03;;;;;;;5.00;2.40;;;21.00;99.90;;;;;;7393845;19;20467;-75
2023/08/18 04:27:29;;;;;;;3.70;2.30;;;21.00;99.90;;;;;;7392568;19;20141;-75
2023/08/18 04:29:54;;;;;;;3.67;2.33;;;21.00;99.90;;;;;;7390694;19;20143;-75
2023/08/18 04:32:20;;;;;;;4.95;2.38;;;20.90;99.90;;;;;;7392213;19;20138;-75
2023/08/18 04:34:46;;;;;;;2.60;2.33;;;21.10;99.90;;;;;;7394598;19;20516;-75
2023/08/18 04:37:11;;;;;;;3.40;2.53;;;21.00;99.90;;;;;;7390335;19;20202;-76
2023/08/18 04:39:37;;;;;;;6.20;2.78;;;21.20;99.90;;;;;;7390765;19;20127;-76
2023/08/18 04:42:03;;;;;;;4.00;2.38;;;21.40;99.90;;;;;;7390095;19;20142;-76
2023/08/18 04:44:28;;;;;;;5.13;2.53;;;21.40;99.90;;;;;;7391292;19;20135;-75
2023/08/18 04:46:54;;;;;;;4.32;2.63;;;21.40;99.90;;;;;;7390513;19;20123;-75
2023/08/18 04:49:20;;;;;;;3.55;2.30;;;21.30;99.90;;;;;;7391090;19;20145;-77
2023/08/18 04:51:45;;;;;;;4.57;2.55;;;21.10;99.90;;;;;;7390856;19;20237;-76
2023/08/18 04:54:11;;;;;;;5.57;2.55;;;21.20;99.90;;;;;;7391807;19;20575;-74
2023/08/18 04:56:38;;;;;;;3.58;2.78;;;21.30;99.90;;;;;;7390203;19;20134;-75
2023/08/18 04:59:03;;;;;;;4.03;2.53;;;21.20;99.90;;;;;;7390275;19;20130;-75
2023/08/18 05:01:29;;;;;;;10.60;2.97;;;21.20;99.90;;;;;;7391501;19;20598;-75
2023/08/18 05:03:57;;;;;;;3.88;2.50;;;20.90;99.90;;;;;;7391402;19;20139;-75
2023/08/18 05:06:22;;;;;;;3.75;2.13;;;20.90;99.90;;;;;;7391673;19;20169;-75
2023/08/18 05:08:48;;;;;;;3.65;2.30;;;20.70;99.90;;;;;;7389627;19;20146;-75
2023/08/18 05:11:14;;;;;;;5.47;2.47;;;20.80;99.90;;;;;;7390775;19;20148;-75
2023/08/18 05:13:41;;;;;;;4.03;2.33;;;20.60;99.90;;;;;;7393533;19;20438;-75
2023/08/18 05:16:07;;;;;;;4.28;2.50;;;20.80;99.90;;;;;;7389949;19;20165;-75
2023/08/18 05:18:33;;;;;;;5.72;2.63;;;20.70;99.90;;;;;;7391125;19;20138;-75
2023/08/18 05:21:00;;;;;;;3.47;2.60;;;20.80;99.90;;;;;;7391983;19;20135;-74
2023/08/18 05:23:27;;;;;;;6.13;2.63;;;20.70;99.90;;;;;;7393928;19;20202;-75
2023/08/18 05:25:54;;;;;;;3.67;2.60;;;20.90;99.90;;;;;;7391733;19;20156;-75
2023/08/18 05:28:21;;;;;;;4.30;2.55;;;21.10;99.90;;;;;;7383945;19;20690;-75
2023/08/18 05:30:50;;;;;;;4.72;2.90;;;20.90;99.90;;;;;;7391074;19;20142;-76
2023/08/18 05:33:16;;;;;;;4.32;2.97;;;20.90;99.90;;;;;;7387924;19;20151;-76
2023/08/18 05:35:42;;;;;;;4.13;2.85;;;21.10;99.90;;;;;;7390607;19;20145;-76
2023/08/18 05:38:11;;;;;;;3.80;2.67;;;21.20;99.90;;;;;;7391437;19;20135;-75
2023/08/18 05:40:41;;;;;;;5.60;3.60;;;21.30;99.90;;;;;;7388094;19;20165;-75
2023/08/18 05:43:08;;;;;;;5.28;3.25;;;21.40;99.90;;;;;;7389082;19;20164;-74
2023/08/18 05:45:36;;;;;;;4.45;3.08;;;21.30;99.90;;;;;;7388974;19;20130;-74
2023/08/18 05:48:02;;;;;;;4.68;2.78;;;21.10;99.90;;;;;;7388766;19;20137;-74
2023/08/18 05:50:29;;;;;;;4.40;2.83;;;21.30;99.90;;;;;;7388580;19;20182;-75
2023/08/18 05:52:55;;;;;;;4.30;2.67;;;21.30;99.90;;;;;;7390724;19;20143;-75
2023/08/18 05:55:25;;;;;;;4.10;3.10;;;21.30;99.90;;;;;;7389455;19;20160;-75
2023/08/18 05:57:52;;;;;;;3.45;2.83;;;21.30;99.90;;;;;;7387260;19;20150;-75
2023/08/18 06:00:18;;;;;;;4.70;2.70;;;21.30;99.90;;;;;;7389921;19;20154;-75
2023/08/18 06:02:44;;;;;;;3.90;3.10;;;21.40;99.90;;;;;;7389156;19;20142;-76
2023/08/18 06:05:11;;;;;;;6.63;2.70;;;21.40;99.90;;;;;;7387336;19;20153;-75
2023/08/18 06:07:39;;;;;;;4.45;2.60;;;21.30;99.90;;;;;;7388280;19;20146;-75
2023/08/18 06:10:07;;;;;;;6.60;3.30;;;21.40;99.90;;;;;;7386983;19;20150;-74
2023/08/18 06:12:33;;;;;;;5.28;2.67;;;21.70;99.90;;;;;;7389186;19;20471;-75
2023/08/18 06:14:58;;;;;;;3.22;2.58;;;21.90;99.90;;;;;;7391335;19;20151;-75
2023/08/18 06:17:24;;;;;;;4.18;2.60;;;22.00;99.90;;;;;;7388665;19;20150;-75
2023/08/18 06:19:51;;;;;;;4.90;2.95;;;22.00;99.90;;;;;;7390203;19;20141;-76
2023/08/18 06:22:17;;;;;;;5.07;2.70;;;21.80;99.90;;;;;;7391418;19;20138;-77
2023/08/18 06:24:43;;;;;;;3.17;2.72;;;21.70;99.90;;;;;;7379774;19;20560;-76
2023/08/18 06:27:09;;;;;;;4.20;2.97;;;21.90;99.90;;;;;;7390075;19;20173;-76
2023/08/18 06:29:34;;;;;;;5.47;2.80;;;22.10;99.90;;;;;;7386475;19;20210;-77
2023/08/18 06:32:00;;;;;;;4.45;2.97;;;22.10;99.90;;;;;;7388094;19;20162;-77
2023/08/18 06:34:26;;;;;;;5.32;2.80;;;22.00;99.90;;;;;;7387653;19;20610;-76
2023/08/18 06:36:52;;;;;;;4.78;2.88;;;22.10;99.90;;;;;;7388729;19;20139;-76
2023/08/18 06:39:18;;;;;;;4.65;2.85;;;22.10;99.90;;;;;;7387619;19;20138;-77
2023/08/18 06:41:43;;;;;;;4.50;2.80;;;22.30;99.90;;;;;;7387819;19;20471;-77
2023/08/18 06:44:11;;;;;;;4.80;3.10;;;22.40;99.90;;;;;;7387756;19;20221;-76
2023/08/18 06:46:37;;;;;;;7.20;3.90;;;22.60;99.90;;;;;;7388038;19;20141;-77
2023/08/18 06:49:03;;;;;;;6.18;3.00;;;23.00;99.90;;;;;;7385486;19;20635;-76
2023/08/18 06:51:31;;;;;;;6.85;2.72;;;23.30;99.90;;;;;;7388290;19;20210;-77
2023/08/18 06:53:57;;;;;;;5.18;2.78;;;23.40;99.90;;;;;;7387188;19;20154;-77
2023/08/18 06:56:23;;;;;;;4.22;3.15;;;24.10;99.90;;;;;;7388534;19;20143;-77
2023/08/18 06:58:48;;;;;;;5.45;3.03;;;25.00;99.90;;;;;;7388571;19;20139;-77
2023/08/18 07:01:14;;;;;;;6.82;2.83;;;25.60;99.90;;;;;;7379685;19;20142;-78
2023/08/18 07:03:40;;;;;;;3.05;2.40;;;25.80;99.90;;;;;;7387034;19;20150;-78
2023/08/18 07:06:05;;;;;;;5.20;2.40;;;26.20;99.90;;;;;;7388056;19;20606;-79
2023/08/18 07:08:32;;;;;;;3.20;2.60;;;26.60;99.90;;;;;;7381535;19;20654;-79
2023/08/18 07:11:00;;;;;;;3.58;2.22;;;27.60;99.90;;;;;;7384695;19;20173;-80
2023/08/18 07:13:26;;;;;;;3.17;2.60;;;27.90;99.90;;;;;;7388301;19;20615;-79
2023/08/18 07:15:52;;;;;;;4.28;2.15;;;27.90;99.90;;;;;;7385839;19;20143;-77
2023/08/18 07:18:18;;;;;;;3.75;1.90;;;27.80;99.90;;;;;;7386791;19;20138;-77
2023/08/18 07:20:45;;;;;;;3.80;2.60;;;27.90;99.90;;;;;;7385442;19;20155;-78
2023/08/18 07:23:11;;;;;;;4.22;2.38;;;27.90;99.90;;;;;;7389218;19;20134;-76
2023/08/18 07:25:39;;;;;;;4.13;2.42;;;27.90;99.90;;;;;;7387134;19;20732;-76
2023/08/18 07:28:05;;;;;;;3.63;2.20;;;27.70;99.90;;;;;;7384807;19;20135;-77
2023/08/18 07:30:31;;;;;;;5.40;2.45;;;27.90;99.90;;;;;;7385602;19;20566;-77
2023/08/18 07:32:57;;;;;;;3.13;2.00;;;27.90;99.90;;;;;;7386351;19;20134;-77
2023/08/18 07:35:24;;;;;;;6.43;2.17;;;28.40;99.90;;;;;;7386772;19;20135;-77
2023/08/18 07:37:50;;;;;;;3.53;2.03;;;28.50;99.90;;;;;;7386889;19;20627;-77
2023/08/18 07:40:16;;;;;;;5.20;2.33;;;28.50;99.90;;;;;;7386249;19;20139;-77
2023/08/18 07:42:42;;;;;;;4.75;2.78;;;28.40;99.90;;;;;;7386420;19;20171;-76
2023/08/18 07:45:08;;;;;;;3.72;1.90;;;28.40;99.90;;;;;;7387357;19;20134;-74
2023/08/18 07:47:34;;;;;;;3.58;2.00;;;28.90;99.90;;;;;;7386112;19;20179;-73
2023/08/18 07:50:00;;;;;;;5.00;2.20;;;29.40;99.90;;;;;;7384611;19;20130;-74
2023/08/18 07:52:26;;;;;;;5.47;2.53;;;29.70;99.90;;;;;;7387604;19;20130;-74
2023/08/18 07:54:52;;;;;;;3.30;2.00;;;30.10;99.90;;;;;;7386364;19;20433;-73
2023/08/18 07:57:17;;;;;;;2.88;2.08;;;30.10;99.90;;;;;;7387060;19;20486;-74
2023/08/18 07:59:43;;;;;;;4.28;1.90;;;30.30;99.90;;;;;;7384315;19;20159;-74
2023/08/18 08:02:09;;;;;;;3.55;1.70;;;30.60;99.90;;;;;;7384148;19;20532;-74
2023/08/18 08:04:34;;;;;;;2.83;2.20;;;31.00;99.90;;;;;;7384658;19;20159;-74
2023/08/18 08:07:00;;;;;;;3.20;2.53;;;31.30;99.90;;;;;;7384232;19;20147;-74
2023/08/18 08:09:26;;;;;;;6.75;1.90;;;31.50;99.90;;;;;;7385127;19;20143;-74
2023/08/18 08:11:52;;;;;;;3.88;1.95;;;30.10;99.90;;;;;;7380573;19;20127;-74
2023/08/18 08:14:19;;;;;;;3.22;1.95;;;30.50;99.90;;;;;;7385611;19;20146;-75
2023/08/18 08:16:45;;;;;;;2.10;1.60;;;30.80;99.90;;;;;;7384408;19;20157;-73
2023/08/18 08:19:13;;;;;;;2.53;1.67;;;30.40;99.90;;;;;;7385193;19;20446;-72
2023/08/18 08:21:40;;;;;;;3.20;1.70;;;30.00;99.90;;;;;;7388347;19;20951;-72
2023/08/18 08:24:06;;;;;;;1.77;1.50;;;29.80;99.90;;;;;;7394888;19;20126;-72
2023/08/18 08:26:32;;;;;;;2.60;1.65;;;29.40;99.90;;;;;;7391637;19;20578;-73
2023/08/18 08:28:58;;;;;;;6.72;1.70;;;29.10;99.90;;;;;;7391608;19;20139;-74
2023/08/18 08:31:24;;;;;;;3.13;2.10;;;29.10;99.90;;;;;;7390980;19;20624;-74
2023/08/18 08:33:50;;;;;;;2.45;1.90;;;29.00;99.90;;;;;;7391602;19;20496;-74
2023/08/18 08:36:16;;;;;;;4.47;3.13;;;28.90;99.90;;;;;;7391436;19;20147;-73
2023/08/18 08:38:42;;;;;;;4.28;1.75;;;28.90;99.90;;;;;;7391530;19;20114;-73
2023/08/18 08:41:08;;;;;;;2.10;1.73;;;29.10;99.90;;;;;;7392896;19;20595;-73
2023/08/18 08:43:34;;;;;;;4.13;2.00;;;29.50;99.90;;;;;;7387739;19;20205;-73
2023/08/18 08:46:01;;;;;;;2.60;2.10;;;29.30;99.90;;;;;;7383605;19;20477;-74
2023/08/18 08:48:37;;;;;;;1.63;1.42;;;29.10;99.90;;;;;;7387109;19;20138;-73
2023/08/18 08:51:04;;;;;;;2.38;1.90;;;29.00;99.90;;;;;;7388174;19;20153;-73
2023/08/18 08:53:35;;;;;;;3.47;2.00;;;29.20;99.90;;;;;;7391868;19;20155;-75
2023/08/18 08:56:02;;;;;;;1.98;1.55;;;28.90;99.90;;;;;;7385928;19;20135;-74
2023/08/18 08:58:32;;;;;;;3.22;1.88;;;28.90;99.90;;;;;;7391578;19;20126;-74
2023/08/18 09:01:02;;;;;;;2.03;1.33;;;28.80;99.90;;;;;;7389716;19;20139;-73
2023/08/18 09:03:28;;;;;;;2.05;1.48;;;29.00;99.90;;;;;;7389807;19;20579;-74
2023/08/18 09:05:55;;;;;;;3.58;1.45;;;29.20;99.90;;;;;;7392640;19;20135;-74
2023/08/18 09:08:21;;;;;;;3.95;1.73;;;29.50;99.90;;;;;;7390806;19;20245;-74
2023/08/18 09:10:46;;;;;;;5.25;1.40;;;29.50;99.90;;;;;;7392372;19;20236;-73
2023/08/18 09:13:12;;;;;;;2.67;1.23;;;29.30;99.90;;;;;;7391521;19;20216;-73
2023/08/18 09:15:44;;;;;;;2.67;1.20;;;29.10;99.90;;;;;;7392053;19;20525;-73
2023/08/18 09:18:13;;;;;;;1.95;1.30;;;29.20;99.90;;;;;;7391093;19;20146;-73
2023/08/18 09:20:40;;;;;;;1.17;1.00;;;29.40;99.90;;;;;;7389564;19;20127;-74
2023/08/18 09:23:06;;;;;;;2.95;1.10;;;29.60;99.90;;;;;;7390625;19;20139;-73
2023/08/18 09:25:33;;;;;;;1.55;1.15;;;29.70;99.90;;;;;;7390820;19;20166;-73
2023/08/18 09:27:59;;;;;;;2.75;1.80;;;29.60;99.90;;;;;;7389471;19;20150;-73
2023/08/18 09:30:25;;;;;;;2.00;1.80;;;29.40;99.90;;;;;;7390319;19;20514;-72
2023/08/18 09:32:51;;;;;;;1.25;1.13;;;29.30;99.90;;;;;;7386237;19;20150;-73
2023/08/18 09:35:21;;;;;;;1.35;1.15;;;29.50;99.90;;;;;;7391705;19;20142;-73
2023/08/18 09:37:57;;;;;;;3.20;1.50;;;29.70;99.90;;;;;;7391667;19;20130;-73
2023/08/18 09:40:24;;;;;;;2.53;1.50;;;29.80;99.90;;;;;;7390270;19;20142;-73
2023/08/18 09:42:50;;;;;;;2.05;1.52;;;29.60;99.90;;;;;;7392299;19;20138;-73
2023/08/18 09:45:15;;;;;;;1.60;1.20;;;29.40;99.90;;;;;;7390351;19;20229;-73
2023/08/18 09:47:42;;;;;;;4.50;2.00;;;29.40;99.90;;;;;;7390134;19;20546;-73
2023/08/18 09:50:14;;;;;;;7.43;5.07;;;29.50;99.90;;;;;;7388086;19;20239;-73
2023/08/18 09:52:42;;;;;;;5.95;2.30;;;29.20;99.90;;;;;;7390987;19;20249;-73
2023/08/18 09:55:13;;;;;;;4.82;1.77;;;28.90;99.90;;;;;;7390943;19;20599;-73
2023/08/18 09:57:52;;;;;;;3.42;1.40;;;28.90;99.90;;;;;;7390544;19;20446;-73
2023/08/18 10:00:19;;;;;;;4.20;1.90;;;28.90;99.90;;;;;;7390993;19;20131;-73
2023/08/18 10:02:46;;;;;;;2.13;1.80;;;29.10;99.90;;;;;;7388151;19;20163;-74
2023/08/18 10:05:14;;;;;;;3.40;1.58;;;29.20;99.90;;;;;;7387218;19;20154;-73
2023/08/18 10:07:40;;;;;;;3.63;1.27;;;29.10;99.90;;;;;;7387400;19;20614;-71
2023/08/18 10:10:08;;;;;;;3.90;1.55;;;29.10;99.90;;;;;;7387806;19;20225;-73
2023/08/18 10:12:33;;;;;;;1.73;1.52;;;29.30;99.90;;;;;;7388915;19;20803;-73
2023/08/18 10:15:00;;;;;;;2.30;1.58;;;29.20;99.90;;;;;;7388810;19;20147;-73
2023/08/18 10:17:26;;;;;;;4.05;1.98;;;29.00;99.90;;;;;;7389004;19;20139;-74
2023/08/18 10:19:56;;;;;;;2.03;1.70;;;28.90;99.90;;;;;;7385088;19;20146;-74
2023/08/18 10:22:28;;;;;;;3.13;1.38;;;28.90;99.90;;;;;;7386447;19;20139;-74
2023/08/18 10:24:55;;;;;;;4.72;3.35;;;28.90;99.90;;;;;;7387678;19;20487;-74
2023/08/18 10:27:27;;;;;;;3.92;1.90;;;28.90;99.90;;;;;;7387136;19;20460;-73
2023/08/18 10:30:21;;;;;;;3.08;2.10;;;28.90;99.90;;;;;;7387974;19;20453;-74
2023/08/18 10:32:47;;;;;;;4.60;2.38;;;29.10;99.90;;;;;;7387417;19;20523;-73
2023/08/18 10:35:23;;;;;;;2.30;1.52;;;29.10;99.90;;;;;;7388306;19;20142;-73
2023/08/18 10:37:50;;;;;;;2.30;1.83;;;29.10;99.90;;;;;;7385457;19;20154;-73
2023/08/18 10:40:26;;;;;;;5.88;2.80;;;29.20;99.90;;;;;;7384681;19;20138;-73
2023/08/18 10:42:56;;;;;;;3.92;1.90;;;29.20;99.90;;;;;;7386362;19;20146;-73
2023/08/18 10:45:24;;;;;;;4.03;1.55;;;29.20;99.90;;;;;;7387894;19;20138;-74
2023/08/18 10:47:50;;;;;;;2.92;1.73;;;29.30;99.90;;;;;;7386247;19;20598;-73
2023/08/18 10:50:16;;;;;;;3.97;2.25;;;29.30;99.90;;;;;;7385353;19;20155;-74
2023/08/18 10:52:42;;;;;;;4.18;2.90;;;29.30;99.90;;;;;;7386887;19;20139;-73
2023/08/18 10:55:08;;;;;;;4.13;2.53;;;29.50;99.90;;;;;;7384084;19;20748;-74
2023/08/18 10:57:34;;;;;;;3.90;1.58;;;29.50;99.90;;;;;;7385410;19;20146;-74
2023/08/18 11:00:01;;;;;;;6.88;1.92;;;29.70;99.90;;;;;;7383909;19;20639;-73
2023/08/18 11:02:28;;;;;;;3.20;1.80;;;29.80;99.90;;;;;;7384423;19;20142;-74
2023/08/18 11:04:54;;;;;;;3.35;1.20;;;29.90;99.90;;;;;;7384471;19;20161;-74
2023/08/18 11:07:19;;;;;;;5.68;1.30;;;29.90;99.90;;;;;;7385395;19;20501;-74
2023/08/18 11:09:45;;;;;;;3.75;1.50;;;29.80;99.90;;;;;;7386413;19;20271;-75
2023/08/18 11:12:11;;;;;;;4.30;2.10;;;29.90;99.90;;;;;;7386681;19;20226;-75
2023/08/18 11:14:37;;;;;;;3.00;1.40;;;30.00;99.90;;;;;;7386159;19;20142;-77
2023/08/18 11:17:02;;;;;;;6.30;1.85;;;30.00;99.30;;;;;;7387293;19;20152;-76
2023/08/18 11:19:28;;;;;;;1.90;1.48;;;30.10;99.30;;;;;;7388060;19;20605;-77
2023/08/18 11:21:57;;;;;;;3.75;1.38;;;30.00;98.90;;;;;;7386598;19;20448;-77
2023/08/18 11:24:24;;;;;;;2.05;1.48;;;30.00;98.60;;;;;;7387797;19;20222;-77
2023/08/18 11:26:50;;;;;;;2.40;1.10;;;29.90;99.00;;;;;;7386323;19;20160;-77
2023/08/18 11:29:16;;;;;;;1.63;1.10;;;30.00;97.40;;;;;;7385832;19;20142;-76
2023/08/18 11:31:45;;;;;;;1.83;1.23;;;30.00;96.70;;;;;;7386210;19;20493;-77
2023/08/18 11:34:11;;;;;;;3.03;2.20;;;30.20;97.10;;;;;;7385537;19;20127;-77
2023/08/18 11:36:38;;;;;;;4.03;1.35;;;30.20;96.00;;;;;;7385344;19;20188;-77
2023/08/18 11:39:08;;;;;;;2.38;1.27;;;30.30;94.90;;;;;;7386224;19;20627;-77
2023/08/18 11:41:42;;;;;;;3.00;1.73;;;30.20;94.60;;;;;;7385291;19;20138;-77
2023/08/18 11:44:09;;;;;;;2.80;1.35;;;30.30;94.40;;;;;;7388084;19;20146;-77
2023/08/18 11:46:36;;;;;;;3.80;1.40;;;30.40;95.10;;;;;;7386583;19;20123;-77
2023/08/18 11:49:12;;;;;;;4.43;1.50;;;30.50;95.30;;;;;;7386266;19;20550;-77
2023/08/18 11:51:54;;;;;;;4.72;1.83;;;30.40;94.90;;;;;;7387396;19;20152;-76
2023/08/18 11:54:20;;;;;;;2.28;1.27;;;30.50;94.40;;;;;;7388354;19;20603;-77
2023/08/18 11:56:46;;;;;;;3.40;1.40;;;30.50;94.40;;;;;;7390534;19;20160;-77
2023/08/18 11:59:22;;;;;;;4.88;2.00;;;30.70;94.00;;;;;;7394818;19;20177;-77
2023/08/18 12:01:56;;;;;;;2.30;1.70;;;30.80;94.00;;;;;;7393203;19;20142;-77
2023/08/18 12:04:31;;;;;;;4.43;1.83;;;30.80;94.30;;;;;;7391403;19;20190;-76
2023/08/18 12:06:57;;;;;;;2.90;1.30;;;30.80;93.70;;;;;;7391115;19;20134;-77
2023/08/18 12:09:24;;;;;;;3.63;1.40;;;30.90;94.00;;;;;;7389550;19;20119;-77
2023/08/18 12:11:51;;;;;;;3.33;1.50;;;31.10;94.10;;;;;;7393542;19;20198;-76
2023/08/18 12:14:17;;;;;;;6.70;1.83;;;31.10;94.00;;;;;;7392249;19;20154;-77
2023/08/18 12:16:44;;;;;;;3.67;2.05;;;31.20;93.50;;;;;;7391959;19;20158;-76
2023/08/18 12:19:11;;;;;;;3.20;1.95;;;31.10;93.70;;;;;;7390066;19;20138;-77
2023/08/18 12:21:37;;;;;;;2.80;1.23;;;31.10;94.00;;;;;;7391591;19;20135;-77
2023/08/18 12:24:04;;;;;;;3.70;1.48;;;31.20;93.50;;;;;;7393500;19;20139;-77
2023/08/18 12:26:31;;;;;;;2.25;1.50;;;31.10;94.00;;;;;;7393664;19;20142;-77
2023/08/18 12:28:57;;;;;;;3.78;1.55;;;31.10;94.30;;;;;;7388400;19;20154;-76
2023/08/18 12:31:24;;;;;;;2.83;1.95;;;31.10;94.40;;;;;;7393108;19;20155;-77
2023/08/18 12:33:53;;;;;;;6.13;1.75;;;31.20;93.70;;;;;;7391404;19;20131;-77
2023/08/18 12:36:19;;;;;;;2.58;1.40;;;31.20;93.10;;;;;;7392957;19;20159;-76
2023/08/18 12:38:48;;;;;;;1.88;1.30;;;31.10;93.50;;;;;;7390158;19;20134;-75
2023/08/18 12:41:14;;;;;;;3.83;1.90;;;31.30;93.20;;;;;;7391993;19;20134;-76
2023/08/18 12:43:41;;;;;;;2.88;2.00;;;31.20;93.00;;;;;;7391596;19;20141;-76
2023/08/18 12:46:08;;;;;;;2.45;1.92;;;31.20;93.20;;;;;;7392162;19;20155;-76